Time;durP1;ratioP1;P1;durP2;ratioP2;P2;SDS_P1;SDS_P2;PMS_P1;PMS_P2;Temp;Humidity;BMP_temperature;BMP_pressure;BME280_temperature;BME280_humidity;BME280_pressure;Samples;Min_cycle;Max_cycle;Signal;HPM_P1;HPM_P2
2023/11/13 00:02:10;;;;;;;12.23;11.63;;;7.80;1.00;;;;;;4893746;29;20210;-40
2023/11/13 00:04:36;;;;;;;12.10;11.50;;;7.80;1.00;;;;;;4898666;29;20818;-40
2023/11/13 00:07:03;;;;;;;12.90;12.20;;;7.80;1.00;;;;;;4897789;29;20446;-41
2023/11/13 00:09:29;;;;;;;11.67;11.07;;;7.70;1.00;;;;;;4897173;29;20422;-39
2023/11/13 00:11:54;;;;;;;12.30;11.60;;;7.70;1.00;;;;;;4913188;29;20467;-39
2023/11/13 00:14:21;;;;;;;12.37;11.50;;;7.70;1.00;;;;;;4911606;29;20915;-40
2023/11/13 00:16:46;;;;;;;10.90;10.30;;;7.70;1.00;;;;;;4891994;29;20195;-39
2023/11/13 00:19:12;;;;;;;11.60;11.03;;;7.70;1.00;;;;;;4891467;29;20482;-39
2023/11/13 00:21:38;;;;;;;11.53;10.93;;;7.60;1.00;;;;;;4884822;29;20265;-39
2023/11/13 00:24:05;;;;;;;12.40;11.80;;;7.60;1.00;;;;;;4893958;29;20197;-39
2023/11/13 00:26:31;;;;;;;12.10;11.53;;;7.50;1.00;;;;;;4910949;29;20192;-39
2023/11/13 00:28:57;;;;;;;12.60;11.70;;;7.40;1.00;;;;;;4893918;29;20533;-39
2023/11/13 00:31:23;;;;;;;12.10;11.50;;;7.40;1.00;;;;;;4894069;29;20542;-40
2023/11/13 00:33:49;;;;;;;12.00;11.40;;;7.40;1.00;;;;;;4894177;29;20459;-39
2023/11/13 00:36:18;;;;;;;12.13;11.53;;;7.40;1.00;;;;;;4878093;29;20186;-40
2023/11/13 00:38:43;;;;;;;12.40;11.80;;;7.40;1.00;;;;;;4896129;29;20215;-39
2023/11/13 00:41:13;;;;;;;12.17;11.57;;;7.40;43.40;;;;;;4888886;29;20448;-39
2023/11/13 00:43:42;;;;;;;12.23;11.63;;;7.40;98.60;;;;;;4897521;29;20295;-40
2023/11/13 00:46:07;;;;;;;12.10;11.50;;;7.30;99.90;;;;;;4897829;29;20511;-41
2023/11/13 00:48:33;;;;;;;12.43;11.83;;;7.30;99.90;;;;;;4896823;29;20451;-40
2023/11/13 00:51:01;;;;;;;12.33;11.67;;;7.20;99.90;;;;;;4897802;29;20222;-40
2023/11/13 00:53:27;;;;;;;12.30;11.70;;;7.20;99.90;;;;;;4896877;29;20475;-38
2023/11/13 00:55:53;;;;;;;12.50;11.90;;;7.20;99.90;;;;;;4905476;29;21369;-38
2023/11/13 00:58:19;;;;;;;12.40;11.80;;;7.10;99.90;;;;;;4901303;29;20428;-38
2023/11/13 01:00:45;;;;;;;12.40;11.57;;;7.00;1.00;;;;;;4903141;29;20186;-40
2023/11/13 01:03:10;;;;;;;12.50;11.90;;;7.00;1.00;;;;;;4900970;29;20989;-39
2023/11/13 01:05:36;;;;;;;12.30;11.70;;;6.80;1.00;;;;;;4899743;29;20219;-40
2023/11/13 01:08:03;;;;;;;12.03;11.43;;;6.80;99.90;;;;;;4895390;29;20191;-40
2023/11/13 01:10:29;;;;;;;12.47;11.87;;;6.70;1.00;;;;;;4899392;29;20236;-40
2023/11/13 01:12:55;;;;;;;12.37;11.07;;;6.60;99.90;;;;;;4900919;29;20499;-39
2023/11/13 01:15:21;;;;;;;11.97;11.47;;;6.60;99.90;;;;;;4898078;29;20486;-38
2023/11/13 01:17:47;;;;;;;12.13;11.60;;;6.50;1.00;;;;;;4903927;29;20298;-39
2023/11/13 01:20:13;;;;;;;12.37;11.77;;;6.40;99.90;;;;;;4894539;29;20195;-40
2023/11/13 01:22:39;;;;;;;12.05;11.45;;;6.40;99.90;;;;;;4905445;29;20950;-40
2023/11/13 01:25:05;;;;;;;11.93;11.27;;;6.40;1.00;;;;;;4896757;29;20215;-39
2023/11/13 01:27:30;;;;;;;11.93;11.33;;;6.40;1.00;;;;;;4903529;29;20609;-39
2023/11/13 01:29:56;;;;;;;12.30;11.70;;;6.40;1.00;;;;;;4896450;29;20502;-39
2023/11/13 01:32:21;;;;;;;12.73;11.87;;;6.30;1.00;;;;;;4895099;29;20273;-39
2023/11/13 01:34:47;;;;;;;11.70;11.20;;;6.40;99.90;;;;;;4896722;29;20548;-39
2023/11/13 01:37:14;;;;;;;12.03;11.53;;;6.40;99.90;;;;;;4896661;29;20191;-39
2023/11/13 01:39:40;;;;;;;11.65;11.13;;;6.40;99.90;;;;;;4895953;29;20184;-39
2023/11/13 01:42:06;;;;;;;12.40;11.70;;;6.40;99.90;;;;;;4902053;29;20179;-38
2023/11/13 01:44:31;;;;;;;12.43;11.83;;;6.40;99.90;;;;;;4896386;29;20191;-39
2023/11/13 01:46:58;;;;;;;12.17;11.57;;;6.30;99.90;;;;;;4897344;29;20926;-39
2023/11/13 01:49:24;;;;;;;11.90;11.30;;;6.30;99.90;;;;;;4895961;29;20194;-39
2023/11/13 01:51:50;;;;;;;12.00;11.40;;;6.30;99.90;;;;;;4897254;29;20450;-40
2023/11/13 01:54:17;;;;;;;11.97;11.37;;;6.30;95.00;;;;;;4879660;29;20861;-40
2023/11/13 01:56:43;;;;;;;12.20;11.50;;;6.30;90.50;;;;;;4901694;29;20493;-39
2023/11/13 01:59:12;;;;;;;11.73;11.13;;;6.30;1.00;;;;;;4895638;29;20243;-40
2023/11/13 02:01:39;;;;;;;11.30;10.80;;;6.30;1.00;;;;;;4898129;29;20194;-40
2023/11/13 02:04:06;;;;;;;11.85;11.15;;;6.30;1.00;;;;;;4896149;29;20218;-40
2023/11/13 02:06:31;;;;;;;11.80;11.27;;;6.30;1.00;;;;;;4899517;29;20246;-40
2023/11/13 02:08:57;;;;;;;12.27;11.67;;;6.30;23.50;;;;;;4895328;29;20222;-39
2023/11/13 02:11:25;;;;;;;11.83;11.23;;;6.30;76.30;;;;;;4897356;29;20447;-40
2023/11/13 02:13:53;;;;;;;11.52;11.02;;;6.30;97.30;;;;;;4896009;29;20317;-39
2023/11/13 02:16:19;;;;;;;12.40;11.65;;;6.30;99.90;;;;;;4894483;29;20200;-40
2023/11/13 02:18:45;;;;;;;11.37;10.87;;;6.30;99.90;;;;;;4898012;29;20726;-40
2023/11/13 02:21:10;;;;;;;12.03;11.40;;;6.20;1.00;;;;;;4895416;29;20451;-40
2023/11/13 02:23:36;;;;;;;11.60;11.10;;;6.20;1.00;;;;;;4908332;29;20187;-40
2023/11/13 02:26:09;;;;;;;11.20;10.70;;;6.20;1.00;;;;;;4895796;29;20193;-39
2023/11/13 02:28:35;;;;;;;11.30;10.80;;;6.20;98.60;;;;;;4907916;29;20250;-40
2023/11/13 02:31:01;;;;;;;11.37;10.87;;;6.20;83.30;;;;;;4893984;29;20191;-40
2023/11/13 02:33:26;;;;;;;11.00;10.50;;;6.20;99.90;;;;;;4906727;29;20297;-39
2023/11/13 02:35:52;;;;;;;11.80;11.10;;;6.20;99.90;;;;;;4895136;29;20681;-39
2023/11/13 02:38:17;;;;;;;11.07;10.50;;;6.10;1.00;;;;;;4906068;29;20192;-39
2023/11/13 02:40:43;;;;;;;11.57;10.97;;;6.10;1.00;;;;;;4894404;29;20278;-39
2023/11/13 02:43:09;;;;;;;11.30;10.80;;;6.10;1.00;;;;;;4894300;29;20272;-39
2023/11/13 02:45:34;;;;;;;11.17;10.63;;;6.10;1.00;;;;;;4894726;29;20183;-39
2023/11/13 02:48:00;;;;;;;11.57;11.07;;;6.20;99.90;;;;;;4905713;29;20187;-40
2023/11/13 02:50:25;;;;;;;11.43;10.93;;;6.20;99.90;;;;;;4896170;29;20266;-40
2023/11/13 02:52:51;;;;;;;11.50;10.90;;;6.20;1.00;;;;;;4903817;29;20265;-39
2023/11/13 02:55:17;;;;;;;11.20;10.70;;;6.20;1.00;;;;;;4895615;29;20215;-40
2023/11/13 02:57:42;;;;;;;11.57;10.97;;;6.20;99.90;;;;;;4901943;29;20189;-40
2023/11/13 03:00:09;;;;;;;11.67;11.17;;;6.30;1.00;;;;;;4896924;29;20197;-40
2023/11/13 03:02:36;;;;;;;12.02;11.43;;;6.20;1.00;;;;;;4900211;29;20191;-40
2023/11/13 03:05:02;;;;;;;10.98;10.48;;;6.20;1.00;;;;;;4900005;29;20283;-40
2023/11/13 03:07:27;;;;;;;12.10;11.50;;;6.20;1.00;;;;;;4898521;29;20190;-40
2023/11/13 03:09:54;;;;;;;11.30;10.60;;;6.20;1.00;;;;;;4903167;29;21026;-39
2023/11/13 03:12:21;;;;;;;11.50;11.00;;;6.10;1.00;;;;;;4895060;29;20191;-39
2023/11/13 03:14:47;;;;;;;11.02;10.52;;;6.10;99.90;;;;;;4894524;29;20231;-41
2023/11/13 03:17:13;;;;;;;11.60;11.00;;;6.10;99.90;;;;;;4895371;29;20177;-45
2023/11/13 03:19:39;;;;;;;11.37;10.80;;;6.10;1.00;;;;;;4902153;29;20219;-40
2023/11/13 03:22:05;;;;;;;11.07;10.43;;;6.10;99.90;;;;;;4894909;29;20407;-40
2023/11/13 03:24:30;;;;;;;11.97;11.37;;;6.10;1.00;;;;;;4912160;29;20242;-40
2023/11/13 03:26:56;;;;;;;11.57;10.97;;;6.00;1.00;;;;;;4913544;29;20490;-40
2023/11/13 03:29:21;;;;;;;11.70;11.20;;;6.00;1.00;;;;;;4898044;29;20239;-40
2023/11/13 03:31:47;;;;;;;10.97;10.47;;;5.90;57.90;;;;;;4892963;29;20801;-40
2023/11/13 03:34:13;;;;;;;11.87;11.27;;;5.90;99.90;;;;;;4898072;29;20233;-40
2023/11/13 03:36:38;;;;;;;11.00;10.50;;;5.90;1.00;;;;;;4893199;29;20540;-40
2023/11/13 03:39:04;;;;;;;11.10;10.60;;;5.90;99.90;;;;;;4893771;29;20187;-39
2023/11/13 03:41:32;;;;;;;11.00;10.40;;;5.90;1.00;;;;;;4888623;29;20657;-39
2023/11/13 03:44:00;;;;;;;11.20;10.60;;;5.90;1.00;;;;;;4874652;29;20441;-38
2023/11/13 03:46:26;;;;;;;11.50;10.90;;;5.80;1.00;;;;;;4894380;29;20270;-39
2023/11/13 03:48:52;;;;;;;11.45;10.65;;;5.80;1.00;;;;;;4897370;29;20183;-39
2023/11/13 03:51:17;;;;;;;11.50;11.00;;;5.80;1.00;;;;;;4894305;29;20206;-39
2023/11/13 03:53:43;;;;;;;11.77;11.00;;;5.90;77.00;;;;;;4894431;29;20502;-39
2023/11/13 03:56:09;;;;;;;11.53;11.03;;;5.90;99.90;;;;;;4894165;29;20270;-39
2023/11/13 03:58:35;;;;;;;11.40;10.80;;;5.80;99.90;;;;;;4894707;29;20237;-40
2023/11/13 04:01:02;;;;;;;11.07;10.38;;;5.80;27.60;;;;;;4893791;29;20242;-40
2023/11/13 04:03:28;;;;;;;11.80;11.25;;;5.80;44.80;;;;;;4893695;29;20199;-39
2023/11/13 04:05:54;;;;;;;10.70;10.20;;;5.90;99.90;;;;;;4894293;29;21043;-39
2023/11/13 04:08:20;;;;;;;11.18;10.68;;;5.90;99.90;;;;;;4896316;29;21294;-40
2023/11/13 04:10:47;;;;;;;11.23;10.73;;;5.80;99.90;;;;;;4902586;29;20266;-43
2023/11/13 04:13:14;;;;;;;11.75;10.95;;;5.80;99.90;;;;;;4894249;29;20239;-40
2023/11/13 04:15:39;;;;;;;11.32;10.52;;;5.80;99.90;;;;;;4903980;29;20191;-40
2023/11/13 04:18:05;;;;;;;11.73;11.10;;;5.80;99.90;;;;;;4892609;29;20257;-40
2023/11/13 04:20:31;;;;;;;10.63;10.13;;;5.90;99.90;;;;;;4896160;29;20182;-40
2023/11/13 04:22:57;;;;;;;11.65;11.15;;;5.80;99.90;;;;;;4893901;29;20423;-40
2023/11/13 04:25:23;;;;;;;11.57;11.00;;;5.90;99.90;;;;;;4903122;29;20190;-40
2023/11/13 04:27:48;;;;;;;10.83;10.30;;;5.80;99.90;;;;;;4894088;29;20946;-40
2023/11/13 04:30:14;;;;;;;11.10;10.53;;;5.70;59.70;;;;;;4900961;29;20198;-40
2023/11/13 04:32:41;;;;;;;11.20;10.60;;;5.50;99.90;;;;;;4892094;29;20258;-41
2023/11/13 04:35:07;;;;;;;10.50;10.00;;;5.50;49.50;;;;;;4903164;29;20219;-40
2023/11/13 04:37:33;;;;;;;11.63;11.03;;;5.40;99.90;;;;;;4893081;29;20195;-40
2023/11/13 04:39:58;;;;;;;10.63;10.13;;;5.30;99.90;;;;;;4901526;29;20696;-40
2023/11/13 04:42:24;;;;;;;10.90;10.30;;;5.30;94.10;;;;;;4894002;29;20270;-40
2023/11/13 04:44:50;;;;;;;10.67;10.17;;;5.20;99.90;;;;;;4896961;29;20187;-40
2023/11/13 04:47:15;;;;;;;11.50;10.93;;;5.10;99.90;;;;;;4893669;29;20186;-40
2023/11/13 04:49:41;;;;;;;11.30;10.60;;;5.10;99.90;;;;;;4901462;29;20246;-38
2023/11/13 04:52:07;;;;;;;10.95;10.35;;;5.00;1.00;;;;;;4878892;29;20203;-40
2023/11/13 04:54:33;;;;;;;11.60;11.00;;;4.90;1.00;;;;;;4900088;29;20210;-39
2023/11/13 04:56:59;;;;;;;11.87;10.87;;;4.80;1.00;;;;;;4897176;29;20271;-40
2023/11/13 04:59:25;;;;;;;10.48;9.98;;;4.80;1.00;;;;;;4893002;29;20186;-38
2023/11/13 05:01:51;;;;;;;10.20;9.70;;;4.80;1.00;;;;;;4888801;29;20190;-40
2023/11/13 05:04:17;;;;;;;10.45;9.85;;;4.70;1.00;;;;;;4894524;29;21469;-39
2023/11/13 05:06:43;;;;;;;11.03;10.43;;;4.70;1.00;;;;;;4893031;29;20194;-40
2023/11/13 05:09:08;;;;;;;11.50;10.90;;;4.70;1.00;;;;;;4894643;29;20609;-39
2023/11/13 05:11:35;;;;;;;11.07;10.47;;;4.70;1.00;;;;;;4901084;29;20191;-42
2023/11/13 05:14:00;;;;;;;11.25;10.60;;;4.70;1.00;;;;;;4884662;29;20218;-39
2023/11/13 05:16:27;;;;;;;11.23;10.53;;;4.70;1.00;;;;;;4884574;29;20225;-39
2023/11/13 05:18:54;;;;;;;11.90;11.20;;;4.70;1.00;;;;;;4884098;29;21387;-40
2023/11/13 05:21:20;;;;;;;10.40;9.80;;;4.70;1.00;;;;;;4865739;29;20255;-40
2023/11/13 05:23:49;;;;;;;10.45;9.95;;;4.80;1.00;;;;;;4886522;29;20285;-40
2023/11/13 05:26:16;;;;;;;11.35;10.75;;;4.80;1.00;;;;;;4888080;29;20509;-40
2023/11/13 05:28:42;;;;;;;11.38;10.68;;;4.80;1.00;;;;;;4886790;29;20204;-41
2023/11/13 05:31:08;;;;;;;10.82;10.20;;;4.80;1.00;;;;;;4887256;29;20187;-40
2023/11/13 05:33:34;;;;;;;10.67;10.07;;;4.80;1.00;;;;;;4888462;29;20207;-40
2023/11/13 05:36:00;;;;;;;11.43;10.73;;;4.80;1.00;;;;;;4888319;29;20431;-41
2023/11/13 05:38:25;;;;;;;12.50;11.70;;;4.80;1.00;;;;;;4887749;29;20723;-40
2023/11/13 05:40:51;;;;;;;10.97;10.47;;;4.80;1.00;;;;;;4888285;29;20462;-40
2023/11/13 05:43:17;;;;;;;11.07;10.40;;;4.80;1.00;;;;;;4888205;29;20269;-40
2023/11/13 05:45:42;;;;;;;11.03;10.23;;;4.80;1.00;;;;;;4887302;29;20191;-39
2023/11/13 05:48:09;;;;;;;10.90;10.30;;;4.70;1.00;;;;;;4887883;29;20618;-40
2023/11/13 05:50:34;;;;;;;12.05;11.35;;;4.60;1.00;;;;;;4887990;29;20259;-39
2023/11/13 05:53:00;;;;;;;10.77;10.17;;;4.50;1.00;;;;;;4888186;29;21000;-39
2023/11/13 05:55:25;;;;;;;11.97;11.27;;;4.40;1.00;;;;;;4870423;29;20218;-39
2023/11/13 05:57:52;;;;;;;12.10;11.30;;;4.30;1.00;;;;;;4887613;29;20217;-38
2023/11/13 06:00:19;;;;;;;12.90;12.00;;;4.30;1.00;;;;;;4885287;29;20194;-40
2023/11/13 06:02:45;;;;;;;12.70;11.98;;;4.20;1.00;;;;;;4885830;29;20228;-40
2023/11/13 06:05:10;;;;;;;11.60;10.90;;;4.10;1.00;;;;;;4883824;29;20206;-40
2023/11/13 06:07:37;;;;;;;13.80;12.90;;;4.00;1.00;;;;;;4883951;29;20226;-40
2023/11/13 06:10:10;;;;;;;12.35;11.65;;;3.90;1.00;;;;;;4887703;29;20446;-40
2023/11/13 06:12:39;;;;;;;13.55;12.45;;;3.90;1.00;;;;;;4887852;29;20201;-38
2023/11/13 06:15:11;;;;;;;13.05;12.05;;;3.90;1.00;;;;;;4887344;29;20286;-39
2023/11/13 06:17:37;;;;;;;12.13;11.43;;;3.80;1.00;;;;;;4885356;29;20316;-40
2023/11/13 06:20:04;;;;;;;12.35;11.32;;;3.80;1.00;;;;;;4896981;29;20754;-43
2023/11/13 06:22:30;;;;;;;12.43;11.63;;;3.80;2.10;;;;;;4887552;29;20297;-40
2023/11/13 06:24:56;;;;;;;12.35;11.55;;;3.80;5.90;;;;;;4887506;29;20258;-40
2023/11/13 06:27:22;;;;;;;12.60;11.83;;;3.70;5.50;;;;;;4887537;29;20195;-40
2023/11/13 06:29:47;;;;;;;12.80;12.00;;;3.70;7.90;;;;;;4887469;29;20435;-40
2023/11/13 06:32:13;;;;;;;15.20;14.07;;;3.70;13.80;;;;;;4882455;29;20267;-42
2023/11/13 06:34:39;;;;;;;15.40;14.20;;;3.70;16.90;;;;;;4884364;29;20221;-38
2023/11/13 06:37:05;;;;;;;15.10;14.10;;;3.70;19.20;;;;;;4886391;29;21048;-38
2023/11/13 06:39:31;;;;;;;14.63;13.63;;;3.60;22.70;;;;;;4884316;29;20181;-39
2023/11/13 06:41:57;;;;;;;15.85;14.85;;;3.60;27.70;;;;;;4886883;29;20192;-39
2023/11/13 06:44:23;;;;;;;14.60;13.70;;;3.60;28.00;;;;;;4886945;29;20195;-40
2023/11/13 06:46:48;;;;;;;13.20;12.37;;;3.60;28.90;;;;;;4886864;29;20201;-39
2023/11/13 06:49:14;;;;;;;13.13;12.13;;;3.60;31.70;;;;;;4879135;29;20562;-45
2023/11/13 06:51:40;;;;;;;13.80;12.87;;;3.60;36.40;;;;;;4887308;29;20205;-39
2023/11/13 06:54:07;;;;;;;11.70;10.90;;;3.70;42.70;;;;;;4886821;29;20212;-42
2023/11/13 06:56:34;;;;;;;11.52;10.82;;;3.70;44.20;;;;;;4886940;29;20186;-39
2023/11/13 06:59:00;;;;;;;11.60;10.90;;;3.70;47.00;;;;;;4884371;29;20600;-39
2023/11/13 07:01:26;;;;;;;12.43;11.63;;;3.70;52.60;;;;;;4885034;29;20193;-38
2023/11/13 07:03:51;;;;;;;13.00;12.20;;;3.70;55.10;;;;;;4885750;29;20193;-45
2023/11/13 07:06:17;;;;;;;13.98;12.43;;;3.80;59.60;;;;;;4869462;29;20205;-39
2023/11/13 07:08:43;;;;;;;13.07;12.07;;;3.80;62.30;;;;;;4884720;29;20191;-39
2023/11/13 07:11:10;;;;;;;13.83;12.73;;;3.80;61.90;;;;;;4886169;29;20258;-39
2023/11/13 07:13:39;;;;;;;12.20;11.20;;;3.90;60.70;;;;;;4885459;29;20208;-55
2023/11/13 07:16:07;;;;;;;12.57;11.55;;;4.00;56.60;;;;;;4885980;29;20178;-54
2023/11/13 07:18:33;;;;;;;12.20;11.05;;;4.00;39.90;;;;;;4885726;29;20272;-55
2023/11/13 07:21:01;;;;;;;12.37;11.47;;;4.00;26.20;;;;;;4886073;29;20265;-54
2023/11/13 07:23:28;;;;;;;12.75;11.85;;;4.10;18.70;;;;;;4869403;29;20445;-53
2023/11/13 07:25:54;;;;;;;13.48;12.57;;;4.20;11.40;;;;;;4886311;29;20178;-57
2023/11/13 07:28:20;;;;;;;13.70;12.60;;;4.20;1.00;;;;;;4885219;29;20607;-49
2023/11/13 07:30:46;;;;;;;13.13;12.13;;;4.30;1.00;;;;;;4886287;29;20202;-55
2023/11/13 07:33:11;;;;;;;14.40;13.17;;;4.40;1.00;;;;;;4884247;29;20215;-52
2023/11/13 07:35:38;;;;;;;14.50;13.40;;;4.60;1.00;;;;;;4884474;29;20646;-51
2023/11/13 07:38:07;;;;;;;16.13;14.73;;;4.70;1.00;;;;;;4882742;29;20194;-51
2023/11/13 07:40:33;;;;;;;16.20;14.80;;;4.90;1.00;;;;;;4883524;29;20183;-52
2023/11/13 07:42:59;;;;;;;16.42;15.00;;;5.00;1.00;;;;;;4884782;29;20273;-53
2023/11/13 07:45:25;;;;;;;16.73;15.20;;;5.20;1.00;;;;;;4880619;29;20206;-55
2023/11/13 07:47:51;;;;;;;16.50;14.93;;;5.30;1.00;;;;;;4881007;29;20612;-52
2023/11/13 07:50:17;;;;;;;16.60;15.10;;;5.40;1.00;;;;;;4880452;29;20545;-57
2023/11/13 07:52:44;;;;;;;18.37;16.77;;;5.60;99.90;;;;;;4881536;29;20447;-55
2023/11/13 07:55:13;;;;;;;17.90;16.17;;;5.70;99.90;;;;;;4884720;29;20526;-54
2023/11/13 07:57:40;;;;;;;18.77;16.98;;;5.90;99.90;;;;;;4879376;29;20993;-56
2023/11/13 08:00:11;;;;;;;18.75;16.75;;;6.20;7.40;;;;;;4881063;29;20591;-52
2023/11/13 08:02:42;;;;;;;20.97;18.70;;;6.40;1.00;;;;;;4880322;29;20278;-54
2023/11/13 08:05:16;;;;;;;17.70;16.10;;;6.50;1.00;;;;;;4881423;29;20547;-51
2023/11/13 08:07:43;;;;;;;18.93;17.17;;;6.70;1.00;;;;;;4885023;29;21032;-54
2023/11/13 08:10:14;;;;;;;18.30;16.50;;;6.90;1.00;;;;;;4884835;29;20491;-50
2023/11/13 08:12:44;;;;;;;18.50;16.70;;;7.10;2.60;;;;;;4885450;29;20933;-51
2023/11/13 08:15:13;;;;;;;16.97;15.43;;;7.40;99.90;;;;;;4863329;29;20535;-48
2023/11/13 08:17:43;;;;;;;18.73;16.57;;;7.60;1.00;;;;;;4885484;29;20523;-54
2023/11/13 08:20:14;;;;;;;18.00;16.30;;;7.90;99.90;;;;;;4885186;29;20518;-52
2023/11/13 08:22:41;;;;;;;17.23;15.73;;;8.20;22.20;;;;;;4884924;29;20421;-55
2023/11/13 08:25:11;;;;;;;18.13;16.60;;;8.30;1.00;;;;;;4885331;29;20485;-55
2023/11/13 08:27:40;;;;;;;18.23;16.73;;;8.20;1.00;;;;;;4882890;29;20427;-52
2023/11/13 08:30:07;;;;;;;16.90;15.17;;;8.40;1.00;;;;;;4884570;29;21557;-53
2023/11/13 08:32:34;;;;;;;17.70;16.10;;;8.70;1.00;;;;;;4885082;29;20910;-52
2023/11/13 08:35:00;;;;;;;17.10;15.70;;;8.80;99.90;;;;;;4884954;29;20467;-50
2023/11/13 08:37:27;;;;;;;18.40;16.70;;;8.80;99.90;;;;;;4884445;29;20499;-50
2023/11/13 08:39:52;;;;;;;17.63;16.13;;;8.90;99.90;;;;;;4884292;29;21093;-55
2023/11/13 08:42:19;;;;;;;18.37;16.63;;;9.10;99.90;;;;;;4884711;29;20466;-53
2023/11/13 08:44:45;;;;;;;18.37;16.73;;;9.30;99.90;;;;;;4884151;29;20462;-53
2023/11/13 08:47:10;;;;;;;17.80;16.23;;;9.40;99.90;;;;;;4883938;29;21302;-52
2023/11/13 08:49:41;;;;;;;16.10;14.80;;;9.30;47.80;;;;;;4885371;29;20210;-55
2023/11/13 08:52:08;;;;;;;18.03;16.50;;;9.40;41.60;;;;;;4884616;29;20892;-54
2023/11/13 08:54:35;;;;;;;18.20;16.70;;;9.50;18.40;;;;;;4884347;29;20494;-53
2023/11/13 08:57:06;;;;;;;18.73;17.27;;;9.70;1.00;;;;;;4884708;29;20580;-52
2023/11/13 08:59:35;;;;;;;19.50;17.73;;;9.80;1.00;;;;;;4886987;29;20420;-54
2023/11/13 09:02:05;;;;;;;19.13;17.43;;;10.00;1.00;;;;;;4888951;29;20422;-53
2023/11/13 09:04:35;;;;;;;19.43;17.63;;;10.10;1.00;;;;;;4869572;29;21056;-51
2023/11/13 09:07:07;;;;;;;18.33;16.67;;;10.30;1.00;;;;;;4888177;29;20430;-54
2023/11/13 09:09:34;;;;;;;18.77;17.17;;;10.50;1.00;;;;;;4888100;29;20427;-48
2023/11/13 09:12:01;;;;;;;19.37;17.67;;;10.90;1.00;;;;;;4888233;29;20518;-56
2023/11/13 09:14:27;;;;;;;19.03;17.53;;;11.10;1.00;;;;;;4888258;29;20594;-50
2023/11/13 09:16:53;;;;;;;18.93;17.37;;;11.60;1.00;;;;;;4888579;29;20431;-54
2023/11/13 09:19:19;;;;;;;19.23;17.53;;;11.90;1.00;;;;;;4885580;29;20231;-51
2023/11/13 09:21:45;;;;;;;17.97;16.47;;;12.10;1.00;;;;;;4888771;29;20427;-54
2023/11/13 09:24:13;;;;;;;19.13;17.60;;;12.60;1.00;;;;;;4888606;29;20434;-39
2023/11/13 09:26:39;;;;;;;18.70;17.03;;;12.90;1.00;;;;;;4888435;29;20455;-44
2023/11/13 09:29:05;;;;;;;18.17;16.77;;;12.90;1.00;;;;;;4887993;29;20535;-42
2023/11/13 09:31:30;;;;;;;18.17;16.63;;;12.90;1.00;;;;;;4888457;29;20941;-41
2023/11/13 09:33:56;;;;;;;17.60;16.20;;;12.90;1.00;;;;;;4887688;29;20234;-40
2023/11/13 09:36:22;;;;;;;18.37;16.83;;;13.10;1.00;;;;;;4862900;29;20197;-41
2023/11/13 09:38:53;;;;;;;19.13;17.53;;;13.40;1.00;;;;;;4887639;29;20779;-38
2023/11/13 09:41:24;;;;;;;18.33;16.90;;;13.90;99.90;;;;;;4886387;29;20452;-43
2023/11/13 09:43:50;;;;;;;18.83;17.33;;;14.30;99.90;;;;;;4888647;29;20435;-40
2023/11/13 09:46:16;;;;;;;20.70;18.97;;;14.60;99.90;;;;;;4887096;29;20443;-41
2023/11/13 09:48:49;;;;;;;20.13;18.43;;;14.40;99.90;;;;;;4887835;29;20483;-41
2023/11/13 09:51:17;;;;;;;20.00;18.40;;;14.00;99.90;;;;;;4887223;29;20456;-39
2023/11/13 09:53:45;;;;;;;20.67;18.83;;;13.30;99.90;;;;;;4887108;29;20463;-40
2023/11/13 09:56:15;;;;;;;17.80;16.30;;;12.70;99.90;;;;;;4887327;29;20431;-41
2023/11/13 09:58:41;;;;;;;18.40;16.90;;;12.20;99.90;;;;;;4886842;29;20424;-40
2023/11/13 10:01:10;;;;;;;18.27;16.67;;;11.90;99.90;;;;;;4886601;29;20419;-40
2023/11/13 10:03:36;;;;;;;18.63;17.10;;;11.60;99.90;;;;;;4885807;29;20442;-41
2023/11/13 10:06:09;;;;;;;17.30;15.90;;;12.10;1.00;;;;;;4887210;29;20447;-43
2023/11/13 10:08:46;;;;;;;17.37;15.77;;;12.60;99.90;;;;;;4886840;29;20529;-40
2023/11/13 10:11:12;;;;;;;17.63;16.17;;;13.20;99.90;;;;;;4886682;29;20490;-43
2023/11/13 10:13:38;;;;;;;17.40;15.93;;;13.50;99.90;;;;;;4887682;29;20470;-42
2023/11/13 10:16:22;;;;;;;16.87;15.53;;;13.60;99.90;;;;;;4886935;29;20443;-38
2023/11/13 10:18:49;;;;;;;15.50;14.30;;;13.40;99.90;;;;;;4887273;29;20242;-38
2023/11/13 10:21:33;;;;;;;15.87;14.77;;;13.20;99.90;;;;;;4886827;29;20451;-40
2023/11/13 10:24:21;;;;;;;16.03;14.73;;;12.60;99.90;;;;;;4884875;29;21029;-40
2023/11/13 10:26:55;;;;;;;15.50;14.40;;;12.20;99.90;;;;;;4885782;29;20455;-39
2023/11/13 10:29:27;;;;;;;15.73;14.50;;;12.10;99.90;;;;;;4869538;29;20439;-42
2023/11/13 10:32:02;;;;;;;16.80;15.60;;;11.80;99.90;;;;;;4883417;29;20448;-41
2023/11/13 10:34:43;;;;;;;15.50;14.23;;;11.80;99.90;;;;;;4886048;29;21943;-40
2023/11/13 10:37:11;;;;;;;16.40;14.90;;;11.70;99.90;;;;;;4886837;29;20478;-39
2023/11/13 10:39:40;;;;;;;15.17;14.00;;;11.70;99.90;;;;;;4885806;29;20435;-39
2023/11/13 10:42:22;;;;;;;15.63;14.40;;;11.80;99.90;;;;;;4885466;29;20415;-39
2023/11/13 10:44:50;;;;;;;15.90;14.60;;;11.70;99.90;;;;;;4884961;29;20902;-39
2023/11/13 10:47:25;;;;;;;16.80;15.40;;;11.50;99.90;;;;;;4886648;29;20439;-39
2023/11/13 10:49:52;;;;;;;16.50;15.20;;;11.40;1.00;;;;;;4886079;29;20790;-39
2023/11/13 10:52:20;;;;;;;16.87;15.50;;;11.30;1.00;;;;;;4885607;29;20471;-39
2023/11/13 10:54:50;;;;;;;17.33;15.93;;;11.20;1.00;;;;;;4866125;29;21371;-39
2023/11/13 10:57:17;;;;;;;17.10;15.80;;;11.20;1.00;;;;;;4885937;29;20423;-39
2023/11/13 10:59:46;;;;;;;16.73;15.30;;;11.00;1.00;;;;;;4885610;29;20430;-40
2023/11/13 11:02:27;;;;;;;16.13;14.83;;;10.90;1.00;;;;;;4886059;29;20460;-40
2023/11/13 11:04:56;;;;;;;13.80;12.87;;;10.90;1.00;;;;;;4885788;29;20445;-40
2023/11/13 11:07:26;;;;;;;14.67;13.50;;;10.80;1.00;;;;;;4885886;29;20542;-40
2023/11/13 11:09:57;;;;;;;13.17;12.37;;;10.70;1.00;;;;;;4885890;29;20431;-40
2023/11/13 11:12:25;;;;;;;12.70;11.90;;;10.70;1.00;;;;;;4885344;29;20870;-40
2023/11/13 11:15:14;;;;;;;12.90;12.10;;;10.50;1.00;;;;;;4886033;29;20513;-40
2023/11/13 11:18:05;;;;;;;13.10;12.20;;;10.50;1.00;;;;;;4877146;29;20550;-40
2023/11/13 11:20:40;;;;;;;12.53;11.63;;;10.30;1.00;;;;;;4885379;29;20500;-40
2023/11/13 11:23:07;;;;;;;13.07;12.10;;;10.40;1.00;;;;;;4878820;29;20807;-41
2023/11/13 11:25:50;;;;;;;12.17;11.37;;;10.40;1.00;;;;;;4885233;29;20446;-41
2023/11/13 11:28:36;;;;;;;13.23;12.43;;;10.50;1.00;;;;;;4884371;29;20458;-41
2023/11/13 11:31:33;;;;;;;13.80;12.87;;;10.50;1.00;;;;;;4884605;29;20498;-41
2023/11/13 11:33:59;;;;;;;13.43;12.53;;;10.60;1.00;;;;;;4886191;29;20490;-41
2023/11/13 11:36:29;;;;;;;13.60;12.80;;;10.60;1.00;;;;;;4885403;29;20430;-41
2023/11/13 11:39:18;;;;;;;13.33;12.43;;;10.60;1.00;;;;;;4884739;29;20899;-57
2023/11/13 11:41:45;;;;;;;13.80;12.90;;;10.70;1.00;;;;;;4881031;29;20454;-58
2023/11/13 11:44:13;;;;;;;13.60;12.80;;;10.60;1.00;;;;;;4883285;29;20486;-57
2023/11/13 11:46:52;;;;;;;13.70;12.80;;;10.50;1.00;;;;;;4883629;29;20452;-59
2023/11/13 11:49:28;;;;;;;13.47;12.57;;;10.40;1.00;;;;;;4885328;29;20435;-52
2023/11/13 11:52:11;;;;;;;13.50;12.50;;;10.50;1.00;;;;;;4885077;29;20502;-55
2023/11/13 11:54:38;;;;;;;13.70;12.83;;;10.50;1.00;;;;;;4882898;29;20530;-54
2023/11/13 11:57:11;;;;;;;12.50;11.70;;;10.60;1.00;;;;;;4884856;29;20415;-57
2023/11/13 11:59:39;;;;;;;13.90;12.90;;;10.70;1.00;;;;;;4885505;29;20431;-58
2023/11/13 12:02:06;;;;;;;13.67;12.77;;;10.70;1.00;;;;;;4885512;29;20434;-57
2023/11/13 12:04:32;;;;;;;13.10;12.27;;;10.70;1.00;;;;;;4885184;29;20436;-54
2023/11/13 12:07:02;;;;;;;14.93;13.70;;;10.70;1.00;;;;;;4885209;29;20439;-52
2023/11/13 12:09:28;;;;;;;14.50;13.40;;;10.80;1.00;;;;;;4885343;29;20514;-57
2023/11/13 12:11:54;;;;;;;13.80;12.77;;;10.70;1.00;;;;;;4885159;29;20563;-60
2023/11/13 12:14:20;;;;;;;13.27;12.37;;;10.60;1.00;;;;;;4885283;29;21291;-58
2023/11/13 12:16:50;;;;;;;13.90;12.90;;;10.50;1.00;;;;;;4868456;29;20578;-56
2023/11/13 12:19:15;;;;;;;13.97;13.07;;;10.30;1.00;;;;;;4884131;29;20975;-54
2023/11/13 12:21:42;;;;;;;14.50;13.50;;;10.20;1.00;;;;;;4885261;29;20416;-57
2023/11/13 12:24:12;;;;;;;14.00;12.90;;;10.00;1.00;;;;;;4882724;29;20202;-57
2023/11/13 12:26:44;;;;;;;13.83;12.83;;;9.90;1.00;;;;;;4883800;29;20442;-57
2023/11/13 12:29:17;;;;;;;13.30;12.40;;;10.00;1.00;;;;;;4885368;29;20431;-58
2023/11/13 12:31:44;;;;;;;13.70;12.73;;;9.90;1.00;;;;;;4885558;29;21377;-54
2023/11/13 12:34:14;;;;;;;13.90;12.80;;;10.00;1.00;;;;;;4889331;29;20469;-56
2023/11/13 12:36:42;;;;;;;14.10;13.10;;;9.90;1.00;;;;;;4889083;29;20459;-56
2023/11/13 12:39:14;;;;;;;14.37;13.27;;;9.80;25.40;;;;;;4889043;29;20475;-56
2023/11/13 12:41:40;;;;;;;14.60;13.60;;;9.80;99.90;;;;;;4889527;29;20454;-56
2023/11/13 12:44:07;;;;;;;15.30;14.20;;;9.80;99.90;;;;;;4889091;29;20633;-56